createdAt,value
2022-08-30T00:02:25.819Z,99.90
2022-08-30T00:04:54.293Z,99.90
2022-08-30T00:07:23.232Z,99.90
2022-08-30T00:09:51.211Z,99.90
2022-08-30T00:12:20.918Z,99.90
2022-08-30T00:14:49.214Z,99.90
2022-08-30T00:17:17.182Z,99.90
2022-08-30T00:19:46.786Z,99.90
2022-08-30T00:22:14.820Z,99.90
2022-08-30T00:24:42.741Z,99.90
2022-08-30T00:27:10.704Z,99.90
2022-08-30T00:29:38.671Z,99.90
2022-08-30T00:32:06.882Z,99.90
2022-08-30T00:34:35.188Z,99.90
2022-08-30T00:37:04.909Z,99.90
2022-08-30T00:39:32.844Z,99.90
2022-08-30T00:42:00.825Z,99.90
2022-08-30T00:44:28.800Z,99.90
2022-08-30T00:46:56.720Z,99.90
2022-08-30T00:49:25.574Z,99.90
2022-08-30T00:51:54.380Z,99.90
2022-08-30T00:54:26.319Z,99.90
2022-08-30T00:56:55.187Z,99.90
2022-08-30T00:59:24.359Z,99.90
2022-08-30T01:01:52.577Z,99.90
2022-08-30T01:04:22.924Z,99.90
2022-08-30T01:06:51.130Z,99.90
2022-08-30T01:09:19.273Z,99.90
2022-08-30T01:11:49.405Z,99.90
2022-08-30T01:14:17.731Z,99.90
2022-08-30T01:16:46.735Z,99.90
2022-08-30T01:19:26.543Z,99.90
2022-08-30T01:22:02.324Z,99.90
2022-08-30T01:24:32.403Z,99.90
2022-08-30T01:27:00.438Z,99.90
2022-08-30T01:29:29.548Z,99.90
2022-08-30T01:31:57.520Z,99.90
2022-08-30T01:34:25.652Z,99.90
2022-08-30T01:36:53.595Z,99.90
2022-08-30T01:39:21.614Z,99.90
2022-08-30T01:41:50.997Z,99.90
2022-08-30T01:44:19.026Z,99.90
2022-08-30T01:46:48.984Z,99.90
2022-08-30T01:49:27.303Z,99.90
2022-08-30T01:52:00.935Z,99.90
2022-08-30T01:54:36.564Z,99.90
2022-08-30T01:57:09.939Z,99.90
2022-08-30T01:59:38.578Z,99.90
2022-08-30T02:02:07.870Z,99.90
2022-08-30T02:04:36.766Z,99.90
2022-08-30T02:07:05.505Z,99.90
2022-08-30T02:09:33.632Z,99.90
2022-08-30T02:12:01.610Z,99.90
2022-08-30T02:14:31.462Z,99.90
2022-08-30T02:16:59.527Z,99.90
2022-08-30T02:19:27.550Z,99.90
2022-08-30T02:21:55.582Z,99.90
2022-08-30T02:24:23.771Z,99.90
2022-08-30T02:26:53.095Z,99.90
2022-08-30T02:29:22.367Z,99.90
2022-08-30T02:31:51.717Z,99.90
2022-08-30T02:34:20.779Z,99.90
2022-08-30T02:36:48.951Z,99.90
2022-08-30T02:39:17.401Z,99.90
2022-08-30T02:41:45.444Z,99.90
2022-08-30T02:44:13.464Z,99.90
2022-08-30T02:46:41.443Z,99.90
2022-08-30T02:49:32.695Z,99.90
2022-08-30T02:51:59.472Z,99.90
2022-08-30T02:54:28.373Z,99.90
2022-08-30T02:56:57.385Z,99.90
2022-08-30T02:59:25.435Z,99.90
2022-08-30T03:01:53.377Z,99.90
2022-08-30T03:04:26.987Z,99.90
2022-08-30T03:06:55.693Z,99.90
2022-08-30T03:09:23.814Z,99.90
2022-08-30T03:11:51.934Z,99.90
2022-08-30T03:14:20.227Z,99.90
2022-08-30T03:16:48.186Z,99.90
2022-08-30T03:19:16.316Z,99.90
2022-08-30T03:21:45.964Z,99.90
2022-08-30T03:24:14.596Z,99.90
2022-08-30T03:26:46.142Z,99.90
2022-08-30T03:29:14.788Z,99.90
2022-08-30T03:31:52.642Z,99.90
2022-08-30T03:34:22.295Z,99.90
2022-08-30T03:36:52.914Z,99.90
2022-08-30T03:39:23.431Z,99.90
2022-08-30T03:41:51.869Z,99.90
2022-08-30T03:44:20.296Z,99.90
2022-08-30T03:46:50.075Z,99.90
2022-08-30T03:49:18.364Z,99.90
2022-08-30T03:51:46.485Z,99.90
2022-08-30T03:54:15.851Z,99.90
2022-08-30T03:56:44.562Z,99.90
2022-08-30T03:59:12.534Z,99.90
2022-08-30T04:01:41.987Z,99.90
2022-08-30T04:04:10.287Z,99.90
2022-08-30T04:06:38.475Z,99.90
2022-08-30T04:09:06.774Z,99.90
2022-08-30T04:11:36.120Z,99.90
2022-08-30T04:14:04.081Z,99.90
2022-08-30T04:16:32.099Z,99.90
2022-08-30T04:19:00.121Z,99.90
2022-08-30T04:21:28.300Z,99.90
2022-08-30T04:23:56.257Z,99.90
2022-08-30T04:26:27.587Z,99.90
2022-08-30T04:28:59.338Z,99.90
2022-08-30T04:33:56.344Z,99.90
2022-08-30T04:36:24.454Z,99.90
2022-08-30T04:38:52.400Z,99.90
2022-08-30T04:41:22.702Z,99.90
2022-08-30T04:43:51.476Z,99.90
2022-08-30T04:46:21.215Z,99.90
2022-08-30T04:48:49.344Z,99.90
2022-08-30T04:51:18.763Z,99.90
2022-08-30T04:53:47.452Z,99.90
2022-08-30T04:56:17.439Z,99.90
2022-08-30T04:58:45.796Z,99.90
2022-08-30T05:01:15.346Z,99.90
2022-08-30T05:03:48.894Z,99.90
2022-08-30T05:06:18.029Z,99.90
2022-08-30T05:08:46.878Z,99.90
2022-08-30T05:11:16.531Z,99.90
2022-08-30T05:13:45.629Z,99.90
2022-08-30T05:16:17.905Z,99.90
2022-08-30T05:18:46.374Z,99.90
2022-08-30T05:21:18.614Z,99.90
2022-08-30T05:23:47.223Z,99.90
2022-08-30T05:26:17.838Z,99.90
2022-08-30T05:28:46.177Z,99.90
2022-08-30T05:31:16.948Z,99.90
2022-08-30T05:33:46.453Z,99.90
2022-08-30T05:36:18.603Z,99.90
2022-08-30T05:38:47.687Z,99.90
2022-08-30T05:41:16.718Z,99.90
2022-08-30T05:43:44.995Z,99.90
2022-08-30T05:46:19.285Z,99.90
2022-08-30T05:48:48.255Z,99.90
2022-08-30T05:51:19.689Z,99.90
2022-08-30T05:53:49.467Z,99.90
2022-08-30T05:56:19.687Z,99.90
2022-08-30T05:58:48.506Z,99.90
2022-08-30T06:01:22.713Z,99.90
2022-08-30T06:03:53.330Z,99.90
2022-08-30T06:06:23.200Z,99.90
2022-08-30T06:08:52.043Z,99.90
2022-08-30T06:11:22.445Z,99.90
2022-08-30T06:13:51.556Z,99.90
2022-08-30T06:16:21.852Z,99.90
2022-08-30T06:18:50.418Z,99.90
2022-08-30T06:21:19.171Z,99.90
2022-08-30T06:23:48.632Z,99.90
2022-08-30T06:26:17.436Z,99.90
2022-08-30T06:28:45.443Z,99.90
2022-08-30T06:31:15.882Z,99.90
2022-08-30T06:33:44.789Z,99.90
2022-08-30T06:36:17.507Z,99.90
2022-08-30T06:38:46.301Z,99.90
2022-08-30T06:41:18.352Z,99.90
2022-08-30T06:43:49.015Z,99.90
2022-08-30T06:46:21.994Z,99.90
2022-08-30T06:48:50.507Z,99.90
2022-08-30T06:51:21.983Z,99.90
2022-08-30T06:53:51.796Z,99.90
2022-08-30T06:56:22.641Z,99.90
2022-08-30T06:58:51.819Z,99.90
2022-08-30T07:01:21.749Z,99.90
2022-08-30T07:03:50.736Z,99.90
2022-08-30T07:06:20.028Z,99.90
2022-08-30T07:08:49.733Z,99.90
2022-08-30T07:11:30.719Z,99.90
2022-08-30T07:13:59.319Z,99.90
2022-08-30T07:16:27.744Z,99.90
2022-08-30T07:18:56.523Z,99.90
2022-08-30T07:21:26.885Z,99.90
2022-08-30T07:23:56.515Z,99.90
2022-08-30T07:26:27.631Z,99.90
2022-08-30T07:28:58.302Z,99.90
2022-08-30T07:31:26.684Z,99.90
2022-08-30T07:33:54.952Z,99.90
2022-08-30T07:36:23.452Z,99.90
2022-08-30T07:38:52.971Z,99.90
2022-08-30T07:41:23.489Z,99.90
2022-08-30T07:43:51.932Z,99.90
2022-08-30T07:46:21.854Z,99.90
2022-08-30T07:48:50.055Z,99.90
2022-08-30T07:51:21.038Z,99.90
2022-08-30T07:53:49.245Z,99.90
2022-08-30T07:56:17.601Z,99.90
2022-08-30T07:58:45.640Z,99.90
2022-08-30T08:01:14.746Z,99.90
2022-08-30T08:03:45.411Z,99.90
2022-08-30T08:06:16.414Z,99.90
2022-08-30T08:08:45.737Z,99.90
2022-08-30T08:11:16.711Z,99.90
2022-08-30T08:13:54.099Z,99.90
2022-08-30T08:16:24.225Z,99.90
2022-08-30T08:18:54.652Z,99.90
2022-08-30T08:21:23.349Z,99.90
2022-08-30T08:23:51.676Z,99.90
2022-08-30T08:26:20.144Z,99.90
2022-08-30T08:28:48.475Z,99.90
2022-08-30T08:31:17.773Z,99.90
2022-08-30T08:33:46.338Z,99.90
2022-08-30T08:36:16.221Z,99.90
2022-08-30T08:38:44.493Z,99.90
2022-08-30T08:41:19.734Z,99.80
2022-08-30T08:43:47.726Z,98.50
2022-08-30T08:46:24.560Z,98.70
2022-08-30T08:49:00.660Z,97.20
2022-08-30T08:51:51.291Z,98.80
2022-08-30T08:54:25.453Z,98.10
2022-08-30T08:56:53.560Z,98.50
2022-08-30T08:59:22.297Z,97.80
2022-08-30T09:01:51.126Z,97.80
2022-08-30T09:04:24.020Z,98.20
2022-08-30T09:06:57.922Z,97.70
2022-08-30T09:09:30.497Z,96.80
2022-08-30T09:11:58.895Z,96.60
2022-08-30T09:17:29.785Z,95.50
2022-08-30T09:20:02.598Z,95.50
2022-08-30T09:22:36.053Z,96.10
2022-08-30T09:25:10.987Z,95.70
2022-08-30T09:27:41.380Z,96.40
2022-08-30T09:30:15.909Z,97.30
2022-08-30T09:32:51.393Z,94.10
2022-08-30T09:35:22.297Z,94.60
2022-08-30T09:37:58.874Z,93.60
2022-08-30T09:40:30.230Z,93.30
2022-08-30T09:43:05.428Z,93.50
2022-08-30T09:45:37.107Z,92.30
2022-08-30T09:48:28.288Z,92.10
2022-08-30T09:51:27.279Z,93.40
2022-08-30T09:54:18.298Z,92.80
2022-08-30T09:56:54.482Z,92.70
2022-08-30T09:59:40.653Z,92.50
2022-08-30T10:02:33.701Z,91.80
2022-08-30T10:05:06.759Z,91.80
2022-08-30T10:07:43.806Z,92.10
2022-08-30T10:10:22.664Z,92.00
2022-08-30T10:12:59.098Z,91.30
2022-08-30T10:15:31.068Z,91.00
2022-08-30T10:18:07.428Z,90.90
2022-08-30T10:20:41.775Z,91.10
2022-08-30T10:23:14.347Z,90.80
2022-08-30T10:25:50.023Z,90.20
2022-08-30T10:28:24.797Z,89.80
2022-08-30T10:30:57.860Z,87.60
2022-08-30T10:33:31.771Z,86.10
2022-08-30T10:36:04.406Z,85.30
2022-08-30T10:38:40.763Z,86.40
2022-08-30T10:41:19.867Z,84.70
2022-08-30T10:43:55.520Z,82.10
2022-08-30T10:46:30.899Z,85.70
2022-08-30T10:49:02.447Z,85.10
2022-08-30T10:51:35.863Z,82.70
2022-08-30T10:54:10.955Z,79.50
2022-08-30T10:56:44.002Z,83.50
2022-08-30T10:59:12.434Z,83.40
2022-08-30T11:02:11.585Z,79.20
2022-08-30T11:05:18.106Z,81.00
2022-08-30T11:07:53.477Z,83.40
2022-08-30T11:10:47.860Z,83.20
2022-08-30T11:13:24.479Z,83.50
2022-08-30T11:16:01.723Z,84.70
2022-08-30T11:18:33.131Z,84.50
2022-08-30T11:21:27.817Z,84.30
2022-08-30T11:24:02.484Z,84.30
2022-08-30T11:27:07.121Z,81.80
2022-08-30T11:29:42.716Z,85.70
2022-08-30T11:32:58.645Z,84.40
2022-08-30T11:35:48.653Z,82.50
2022-08-30T11:38:42.113Z,84.80
2022-08-30T11:41:12.235Z,85.50
2022-08-30T11:43:56.102Z,85.40
2022-08-30T11:46:40.041Z,84.50
2022-08-30T11:49:46.142Z,84.90
2022-08-30T11:52:32.034Z,84.00
2022-08-30T11:55:28.220Z,84.50
2022-08-30T11:58:07.499Z,82.40
2022-08-30T12:00:42.127Z,82.00
2022-08-30T12:03:31.080Z,81.60
2022-08-30T12:06:01.722Z,83.50
2022-08-30T12:08:56.535Z,84.40
2022-08-30T12:12:03.191Z,84.30
2022-08-30T12:14:41.072Z,83.60
2022-08-30T12:17:36.244Z,82.60
2022-08-30T12:20:12.463Z,83.70
2022-08-30T12:22:40.641Z,78.20
2022-08-30T12:25:21.414Z,76.90
2022-08-30T12:27:50.137Z,75.50
2022-08-30T12:30:27.612Z,77.10
2022-08-30T12:32:56.145Z,75.40
2022-08-30T12:35:29.146Z,80.60
2022-08-30T12:38:00.483Z,79.60
2022-08-30T12:40:31.110Z,74.00
2022-08-30T12:43:02.793Z,74.10
2022-08-30T12:45:35.126Z,75.90
2022-08-30T12:48:08.658Z,76.40
2022-08-30T12:50:51.689Z,74.90
2022-08-30T12:53:25.539Z,75.90
2022-08-30T12:55:55.689Z,73.50
2022-08-30T12:58:37.364Z,72.90
2022-08-30T13:01:18.758Z,74.60
2022-08-30T13:03:57.675Z,71.80
2022-08-30T13:06:43.790Z,75.70
2022-08-30T13:09:24.889Z,74.80
2022-08-30T13:11:53.020Z,75.90
2022-08-30T13:14:31.161Z,71.00
2022-08-30T13:17:12.051Z,71.90
2022-08-30T13:19:42.226Z,71.60
2022-08-30T13:25:06.075Z,73.10
2022-08-30T13:27:37.045Z,74.70
2022-08-30T13:30:13.551Z,74.40
2022-08-30T13:32:42.522Z,69.50
2022-08-30T13:35:11.255Z,72.10
2022-08-30T13:37:50.045Z,71.40
2022-08-30T13:40:22.573Z,73.90
2022-08-30T13:42:50.687Z,69.90
2022-08-30T13:48:10.636Z,73.80
2022-08-30T13:50:38.655Z,74.50
2022-08-30T13:53:09.041Z,70.90
2022-08-30T13:55:39.803Z,71.70
2022-08-30T13:58:09.558Z,72.00
2022-08-30T14:00:39.115Z,74.00
2022-08-30T14:03:07.197Z,74.90
2022-08-30T14:06:15.831Z,73.60
2022-08-30T14:08:45.578Z,76.20
2022-08-30T14:11:21.116Z,77.00
2022-08-30T14:16:42.016Z,77.30
2022-08-30T14:19:12.208Z,77.60
2022-08-30T14:21:40.413Z,75.40
2022-08-30T14:24:08.632Z,76.60
2022-08-30T14:26:40.530Z,73.70
2022-08-30T14:29:10.693Z,76.50
2022-08-30T14:31:39.019Z,74.10
2022-08-30T14:34:08.199Z,75.40
2022-08-30T14:36:37.991Z,77.50
2022-08-30T14:39:09.748Z,76.20
2022-08-30T14:41:44.172Z,76.60
2022-08-30T14:44:13.061Z,76.40
2022-08-30T14:46:42.022Z,76.30
2022-08-30T14:49:11.153Z,76.70
2022-08-30T14:51:40.146Z,76.40
2022-08-30T14:54:08.479Z,76.90
2022-08-30T14:56:40.446Z,76.70
2022-08-30T14:59:09.262Z,76.40
2022-08-30T15:01:39.955Z,75.90
2022-08-30T15:04:09.331Z,75.70
2022-08-30T15:06:39.083Z,77.60
2022-08-30T15:09:10.303Z,76.10
2022-08-30T15:11:40.109Z,76.40
2022-08-30T15:14:09.398Z,77.60
2022-08-30T15:16:41.061Z,75.60
2022-08-30T15:19:11.418Z,75.50
2022-08-30T15:21:41.576Z,77.20
2022-08-30T15:24:12.168Z,77.50
2022-08-30T15:26:43.965Z,77.20
2022-08-30T15:29:14.125Z,76.70
2022-08-30T15:31:42.285Z,76.70
2022-08-30T15:34:11.624Z,77.20
2022-08-30T15:36:41.101Z,77.30
2022-08-30T15:39:10.664Z,77.20
2022-08-30T15:41:39.939Z,77.40
2022-08-30T15:44:14.054Z,76.20
2022-08-30T15:46:44.643Z,76.50
2022-08-30T15:49:15.542Z,77.00
2022-08-30T15:51:46.031Z,77.00
2022-08-30T15:54:16.459Z,76.30
2022-08-30T15:56:45.241Z,77.50
2022-08-30T15:59:17.589Z,77.90
2022-08-30T16:01:47.334Z,75.90
2022-08-30T16:04:18.357Z,77.70
2022-08-30T16:06:47.148Z,76.90
2022-08-30T16:09:15.270Z,78.90
2022-08-30T16:11:43.693Z,78.50
2022-08-30T16:14:11.948Z,78.00
2022-08-30T16:16:42.034Z,78.10
2022-08-30T16:19:10.655Z,79.20
2022-08-30T16:21:39.921Z,78.30
2022-08-30T16:24:10.644Z,78.50
2022-08-30T16:26:42.990Z,78.20
2022-08-30T16:29:12.406Z,78.50
2022-08-30T16:31:44.700Z,79.00
2022-08-30T16:34:13.326Z,79.10
2022-08-30T16:36:41.364Z,79.70
2022-08-30T16:39:11.164Z,81.30
2022-08-30T16:41:40.652Z,81.30
2022-08-30T16:44:08.939Z,81.30
2022-08-30T16:46:42.672Z,82.00
2022-08-30T16:49:12.082Z,82.40
2022-08-30T16:51:40.064Z,82.00
2022-08-30T16:54:09.025Z,82.20
2022-08-30T16:56:37.874Z,82.90
2022-08-30T16:59:10.484Z,82.30
2022-08-30T17:01:56.242Z,83.40
2022-08-30T17:04:24.273Z,83.70
2022-08-30T17:06:53.232Z,83.80
2022-08-30T17:09:22.265Z,83.80
2022-08-30T17:11:50.516Z,82.60
2022-08-30T17:14:28.020Z,82.60
2022-08-30T17:17:00.719Z,83.50
2022-08-30T17:19:28.921Z,84.50
2022-08-30T17:21:58.119Z,84.00
2022-08-30T17:24:26.779Z,85.10
2022-08-30T17:26:55.536Z,85.60
2022-08-30T17:29:23.536Z,85.20
2022-08-30T17:31:52.048Z,86.60
2022-08-30T17:34:22.211Z,87.70
2022-08-30T17:36:52.549Z,87.00
2022-08-30T17:39:22.014Z,87.30
2022-08-30T17:41:51.502Z,87.70
2022-08-30T17:44:25.828Z,87.80
2022-08-30T17:46:54.476Z,87.90
2022-08-30T17:49:24.206Z,88.90
2022-08-30T17:51:56.653Z,88.60
2022-08-30T17:54:26.012Z,89.60
2022-08-30T17:56:54.751Z,89.60
2022-08-30T17:59:24.808Z,90.20
2022-08-30T18:01:54.710Z,90.10
2022-08-30T18:04:24.952Z,90.40
2022-08-30T18:06:53.301Z,90.10
2022-08-30T18:09:21.865Z,90.60
2022-08-30T18:11:50.214Z,90.60
2022-08-30T18:14:18.421Z,90.70
2022-08-30T18:16:49.893Z,91.10
2022-08-30T18:19:24.037Z,91.40
2022-08-30T18:21:52.376Z,91.40
2022-08-30T18:24:20.690Z,91.10
2022-08-30T18:26:48.839Z,91.10
2022-08-30T18:29:29.290Z,91.50
2022-08-30T18:31:59.666Z,91.40
2022-08-30T18:34:29.573Z,91.90
2022-08-30T18:36:57.739Z,92.00
2022-08-30T18:39:26.670Z,92.10
2022-08-30T18:41:56.995Z,92.20
2022-08-30T18:44:28.881Z,92.50
2022-08-30T18:47:00.206Z,92.60
2022-08-30T18:49:32.127Z,92.70
2022-08-30T18:52:01.475Z,93.30
2022-08-30T18:54:30.434Z,93.20
2022-08-30T18:56:58.415Z,92.90
2022-08-30T18:59:35.700Z,93.60
2022-08-30T19:02:05.819Z,93.50
2022-08-30T19:04:36.149Z,94.10
2022-08-30T19:07:05.980Z,94.10
2022-08-30T19:09:34.214Z,94.10
2022-08-30T19:12:02.316Z,94.30
2022-08-30T19:14:30.346Z,94.20
2022-08-30T19:17:02.023Z,94.20
2022-08-30T19:19:35.346Z,94.10
2022-08-30T19:22:14.192Z,94.40
2022-08-30T19:24:43.483Z,94.50
2022-08-30T19:27:11.557Z,94.10
2022-08-30T19:29:40.329Z,94.00
2022-08-30T19:32:08.737Z,93.70
2022-08-30T19:34:39.960Z,94.20
2022-08-30T19:37:07.942Z,94.10
2022-08-30T19:39:43.138Z,93.90
2022-08-30T19:42:14.704Z,94.20
2022-08-30T19:44:42.770Z,94.70
2022-08-30T19:47:11.583Z,94.60
2022-08-30T19:49:41.028Z,94.70
2022-08-30T19:52:09.954Z,95.10
2022-08-30T19:54:38.140Z,94.80
2022-08-30T19:57:06.716Z,94.80
2022-08-30T19:59:34.918Z,94.90
2022-08-30T20:02:03.912Z,95.10
2022-08-30T20:04:34.585Z,95.40
2022-08-30T20:07:03.983Z,95.60
2022-08-30T20:09:32.117Z,96.00
2022-08-30T20:12:00.118Z,95.90
2022-08-30T20:14:28.552Z,96.40
2022-08-30T20:16:56.974Z,96.40
2022-08-30T20:19:27.306Z,96.40
2022-08-30T20:22:04.233Z,96.60
2022-08-30T20:24:37.941Z,97.10
2022-08-30T20:27:07.541Z,97.00
2022-08-30T20:29:35.495Z,97.10
2022-08-30T20:32:04.222Z,97.10
2022-08-30T20:34:32.283Z,97.30
2022-08-30T20:37:00.368Z,97.30
2022-08-30T20:39:28.504Z,97.10
2022-08-30T20:41:58.350Z,97.00
2022-08-30T20:44:26.513Z,97.30
2022-08-30T20:46:54.521Z,97.10
2022-08-30T20:49:22.704Z,97.30
2022-08-30T20:51:54.380Z,97.00
2022-08-30T20:54:22.836Z,97.00
2022-08-30T20:56:51.551Z,97.40
2022-08-30T20:59:21.267Z,97.70
2022-08-30T21:01:50.021Z,97.60
2022-08-30T21:04:18.922Z,97.70
2022-08-30T21:06:46.975Z,97.70
2022-08-30T21:09:15.350Z,98.10
2022-08-30T21:11:44.693Z,98.80
2022-08-30T21:14:13.271Z,99.50
2022-08-30T21:16:42.894Z,99.80
2022-08-30T21:19:11.024Z,99.90
2022-08-30T21:21:39.117Z,99.90
2022-08-30T21:24:10.068Z,99.90
2022-08-30T21:26:38.664Z,99.90
2022-08-30T21:29:07.265Z,99.90
2022-08-30T21:31:37.717Z,99.90
2022-08-30T21:34:07.683Z,99.90
2022-08-30T21:36:56.660Z,99.90
2022-08-30T21:39:26.891Z,99.90
2022-08-30T21:41:56.908Z,99.90
2022-08-30T21:44:27.068Z,99.90
2022-08-30T21:46:56.111Z,99.90
2022-08-30T21:49:26.227Z,99.90
2022-08-30T21:51:55.332Z,99.90
2022-08-30T21:54:24.792Z,99.90
2022-08-30T21:57:01.260Z,99.90
2022-08-30T21:59:30.105Z,99.90
2022-08-30T22:01:59.068Z,99.90
2022-08-30T22:04:29.485Z,99.90
2022-08-30T22:06:57.487Z,99.90
2022-08-30T22:09:26.484Z,99.90
2022-08-30T22:11:54.981Z,99.90
2022-08-30T22:14:23.849Z,99.90
2022-08-30T22:16:54.590Z,99.90
2022-08-30T22:19:23.573Z,99.90
2022-08-30T22:22:01.082Z,99.90
2022-08-30T22:24:31.923Z,99.90
2022-08-30T22:27:01.673Z,99.90
2022-08-30T22:29:30.481Z,99.90
2022-08-30T22:31:58.669Z,99.90
2022-08-30T22:34:27.131Z,99.90
2022-08-30T22:36:56.518Z,99.90
2022-08-30T22:39:25.714Z,99.90
2022-08-30T22:41:57.051Z,99.90
2022-08-30T22:44:25.617Z,99.90
2022-08-30T22:46:53.659Z,99.90
2022-08-30T22:49:21.817Z,99.90
2022-08-30T22:51:49.829Z,99.90
2022-08-30T22:54:19.268Z,99.90
2022-08-30T22:56:47.245Z,99.90
2022-08-30T22:59:16.443Z,99.90
2022-08-30T23:01:44.873Z,99.90
2022-08-30T23:04:13.833Z,99.90
2022-08-30T23:06:45.581Z,99.90
2022-08-30T23:09:19.959Z,99.90
2022-08-30T23:11:48.101Z,99.90
2022-08-30T23:14:16.425Z,99.90
2022-08-30T23:16:45.136Z,99.90
2022-08-30T23:19:13.474Z,99.90
2022-08-30T23:21:41.513Z,99.90
2022-08-30T23:24:27.692Z,99.90
2022-08-30T23:27:14.749Z,99.90
2022-08-30T23:30:00.233Z,99.90
2022-08-30T23:32:45.931Z,99.90
2022-08-30T23:35:32.383Z,99.90
2022-08-30T23:38:18.785Z,99.90
2022-08-30T23:41:04.209Z,99.90
2022-08-30T23:43:50.750Z,99.90
2022-08-30T23:46:35.957Z,99.90
2022-08-30T23:49:21.845Z,99.90
2022-08-30T23:52:07.649Z,99.90
2022-08-30T23:54:57.177Z,99.90
2022-08-30T23:57:43.875Z,99.90
